• Join FlightAware (Why Join?)
  • Login
  • US Flag 
09:12AM EDT


 

Airport Tracker/Info


-or-


 

Live Flight TrackerFlight Track Log ✈ DAL1503 ✈ 06-May-2012 ✈ KTPA - KCVG

Flight Track Log - Related Links

Times and Time Zones

All times are in EDT time to prevent confusion due to time zone crossing. See the DAL1503 flight status page for this flight to view local times or setup timezone preferences in your user account.

Time Position Orientation Groundspeed Altitude Reporting Facility
EDT Latitude Longitude Course Direction KTS MPH feet Rate Location/Type
08:29AM 28.0000 -82.5500 16° North 132 152 800  Level Tampa TRACON
08:30AM 28.0500 -82.5333 350° North 234 269 2,300 1,980 Climbing Tampa TRACON
08:31AM 28.1333 -82.5500 330° Northwest 278 320 5,000 2,820 Climbing Tampa TRACON
08:32AM 28.2206 -82.6075 334° Northwest 301 346 8,800 2,340 Climbing Jacksonville Center
08:33AM 28.3000 -82.6522 333° Northwest 301 346 10,400 1,560 Climbing Jacksonville Center
08:34AM 28.3897 -82.7039 333° Northwest 333 383 12,000 2,040 Climbing Jacksonville Center
08:35AM 28.4900 -82.7628 338° Northwest 375 432 14,500 2,400 Climbing Jacksonville Center
08:36AM 28.5964 -82.8122 358° North 396 456 16,800 2,100 Climbing Jacksonville Center
08:37AM 28.7050 -82.8169 350° North 407 468 18,700 1,860 Climbing Jacksonville Center
08:38AM 28.8261 -82.8403 347° North 423 487 20,600 1,800 Climbing Jacksonville Center
08:39AM 28.9472 -82.8711 347° North 435 501 22,400 1,800 Climbing Jacksonville Center
08:40AM 29.0703 -82.9044 347° North 440 506 24,200 1,860 Climbing Jacksonville Center
08:41AM 29.1933 -82.9378 347° North 445 512 26,200 1,680 Climbing Jacksonville Center
08:42AM 29.3125 -82.9689 346° North 445 512 27,600 1,860 Climbing Jacksonville Center
08:43AM 29.4292 -83.0022 347° North 445 512 30,000 1,980 Climbing Jacksonville Center
08:44AM 29.5461 -83.0333 342° North 432 497 31,600 900 Climbing Jacksonville Center
08:45AM 29.6547 -83.0742 337° Northwest 419 482 31,900 420 Climbing Jacksonville Center
08:46AM 29.7631 -83.1269 339° North 419 482 32,500 720 Climbing Jacksonville Center
08:47AM 29.8736 -83.1753 338° Northwest 419 482 33,400 660 Climbing Jacksonville Center
08:48AM 29.9864 -83.2283 338° Northwest 424 488 33,900 300 Climbing Jacksonville Center
08:49AM 30.1072 -83.2839 337° Northwest 424 488 34,000  Climbing Jacksonville Center
08:50AM 30.2178 -83.3372 338° Northwest 424 488 34,000  Level Jacksonville Center
08:51AM 30.3281 -83.3883 338° Northwest 429 494 34,000  Level Jacksonville Center
08:52AM 30.4386 -83.4394 337° Northwest 429 494 34,000  Level Jacksonville Center
08:53AM 30.5492 -83.4933 339° North 429 494 34,000  Level Jacksonville Center
08:54AM 30.6636 -83.5447 338° Northwest 429 494 34,000  Level Jacksonville Center
08:55AM 30.7617 -83.5911 337° Northwest 430 495 34,000  Level Jacksonville Center
08:56AM 30.8739 -83.6453 337° Northwest 430 495 34,000  Level Jacksonville Center
08:57AM 30.9842 -83.6994 338° Northwest 430 495 34,000  Level Jacksonville Center
08:58AM 31.0947 -83.7514 338° Northwest 430 495 34,000  Level Jacksonville Center
08:59AM 31.2028 -83.8033 337° Northwest 430 495 34,000  Level Jacksonville Center
09:02AM 31.5086 -83.9536 348° North 416 479 34,000  Level Atlanta Center
09:03AM 31.6256 -83.9828 349° North 416 479 34,000  Level Atlanta Center
09:04AM 31.7319 -84.0072 350° North 416 479 34,000  Level Atlanta Center
09:05AM 31.8489 -84.0317 349° North 426 490 34,000  Level Atlanta Center
09:06AM 31.9658 -84.0583 349° North 431 496 34,000  Level Atlanta Center
09:07AM 32.0847 -84.0856 350° North 431 496 34,000  Level Atlanta Center
09:08AM 32.2017 -84.1100 350° North 431 496 34,000  Level Atlanta Center
09:09AM 32.3186 -84.1347 349° North 431 496 34,000  Level Atlanta Center
09:10AM 32.4333 -84.1619 349° North 426 490 34,000  Level Atlanta Center
09:12AM 32.6692 -84.2142 348° North 431 496 34,000  Level Atlanta Center
09:13AM 32.7839 -84.2439 351° North 431 496 34,000  Level Atlanta Center
09:18AM 33.3742 -84.3572 North 425 489 34,000  Level Atlanta Center
09:19AM 33.4975 -84.3553 360° North 425 489 34,000  Level Atlanta Center
09:20AM 33.6331 -84.3556 360° North 432 497 34,000  Level Atlanta Center
09:21AM 33.7542 -84.3561 North 432 497 34,000  Level Atlanta Center
09:22AM 33.8731 -84.3514 360° North 432 497 34,000  Level Atlanta Center
09:35AM 35.4425 -84.3369 360° North 439 505 34,000  Level Atlanta Center
09:37AM 35.7144 -84.3344 North 438 504 34,000  Level Indianapolis Center
09:46AM 36.8083 -84.2028 10° North 443 510 34,000 -120 Level Indianapolis Center
09:47AM 36.9294 -84.1753 North 443 510 33,000 -1,200 Descending Indianapolis Center
09:48AM 37.0528 -84.1503 10° North 443 510 31,600 -1,500 Descending Indianapolis Center
09:49AM 37.1925 -84.1203 29° Northeast 450 518 30,100 -1,500 Descending Indianapolis Center
09:50AM 37.3014 -84.0453 47° Northeast 444 511 28,600 -1,800 Descending Indianapolis Center
09:51AM 37.3831 -83.9333 46° Northeast 438 504 26,600 -1,560 Descending Indianapolis Center
09:52AM 37.4689 -83.8214 46° Northeast 433 498 25,500 -1,140 Descending Indianapolis Center
09:53AM 37.5506 -83.7142 40° Northeast 433 498 24,400 -780 Descending Indianapolis Center
09:54AM 37.6403 -83.6200 345° North 417 480 24,000 -900 Descending Indianapolis Center
09:55AM 37.7508 -83.6569 328° Northwest 411 473 22,600 -1,500 Descending Indianapolis Center
09:56AM 37.8467 -83.7333 331° Northwest 428 493 21,100 -1,560 Descending Indianapolis Center
09:57AM 37.9467 -83.8044 331° Northwest 411 473 19,500 -1,260 Descending Indianapolis Center
09:58AM 38.0444 -83.8733 329° Northwest 403 464 18,600 -1,140 Descending Indianapolis Center
09:59AM 38.1403 -83.9453 331° Northwest 398 458 17,300 -1,620 Descending Indianapolis Center
10:00AM 38.2297 -84.0092 332° Northwest 388 447 15,400 -2,220 Descending Indianapolis Center
10:01AM 38.3172 -84.0678 331° Northwest 371 427 12,900 -2,220 Descending Indianapolis Center
10:02AM 38.4044 -84.1294 329° Northwest 358 412 11,000 -960 Descending Indianapolis Center
10:03AM 38.4875 -84.1939 331° Northwest 353 406 11,000  Level Indianapolis Center
10:04AM 38.5728 -84.2556 328° Northwest 353 406 11,000 -60 Level Indianapolis Center
10:05AM 38.6475 -84.3147 313° West 353 406 10,900 -60 Descending Indianapolis Center
10:06AM 38.7136 -84.4061 313° West 353 406 10,900 -60 Level Indianapolis Center
10:07AM 38.7836 -84.5028 343° North 348 400 10,800 -360 Descending Indianapolis Center
10:08AM 38.8689 -84.5358 358° North 328 377 10,200 -960 Descending Indianapolis Center
10:09AM 38.9439 -84.5394 358° North 288 331 8,900 -1,440 Descending Indianapolis Center
10:10AM 39.0211 -84.5433 355° North 279 321 7,400 -1,740 Descending Indianapolis Center
10:11AM 39.0981 -84.5525 338° Northwest 269 310 5,500 -1,800 Descending Indianapolis Center
10:12AM 39.1606 -84.5853 258° West 264 304 3,900 -1,440 Descending Indianapolis Center
10:13AM 39.1500 -84.6500 180° South 210 242 2,900 -1,200 Descending Cincinnati TRACON
10:14AM 39.1000 -84.6500 180° South 188 216 1,700 -1,200 Descending Cincinnati TRACON